Time;durP1;ratioP1;P1;durP2;ratioP2;P2;SDS_P1;SDS_P2;PMS_P1;PMS_P2;Temp;Humidity;BMP_temperature;BMP_pressure;BME280_temperature;BME280_humidity;BME280_pressure;Samples;Min_cycle;Max_cycle;Signal;HPM_P1;HPM_P2
2023/03/28 00:01:51;;;;;;;2.13;1.97;;;1.30;99.90;;;;;;5042336;28;20286;-69
2023/03/28 00:04:21;;;;;;;2.60;2.30;;;1.30;99.90;;;;;;5033984;28;20641;-70
2023/03/28 00:06:48;;;;;;;3.87;3.23;;;1.20;99.90;;;;;;5037517;28;20189;-70
2023/03/28 00:09:14;;;;;;;2.50;2.30;;;1.20;99.90;;;;;;5042267;28;20235;-71
2023/03/28 00:11:39;;;;;;;2.90;2.70;;;1.20;99.90;;;;;;5043786;28;20670;-72
2023/03/28 00:14:07;;;;;;;2.97;2.77;;;1.20;99.90;;;;;;5041485;28;20278;-71
2023/03/28 00:16:35;;;;;;;6.10;3.23;;;1.10;99.90;;;;;;5040442;28;20187;-70
2023/03/28 00:19:07;;;;;;;2.10;2.00;;;1.10;99.90;;;;;;5044629;28;20208;-70
2023/03/28 00:21:38;;;;;;;2.90;2.70;;;1.10;99.90;;;;;;5042266;28;20203;-70
2023/03/28 00:24:09;;;;;;;3.20;2.90;;;1.10;99.90;;;;;;5040558;28;20674;-70
2023/03/28 00:26:35;;;;;;;2.93;2.70;;;1.10;99.90;;;;;;5049091;28;20172;-69
2023/03/28 00:29:03;;;;;;;2.10;2.00;;;1.20;99.90;;;;;;5041969;28;20276;-70
2023/03/28 00:31:31;;;;;;;2.67;2.50;;;1.10;99.90;;;;;;5037653;28;20298;-70
2023/03/28 00:33:57;;;;;;;2.60;2.40;;;1.10;99.90;;;;;;5037601;28;20290;-71
2023/03/28 00:36:25;;;;;;;2.30;2.20;;;1.10;99.90;;;;;;5034923;28;20648;-70
2023/03/28 00:38:54;;;;;;;3.40;1.23;;;1.10;99.90;;;;;;5038821;28;20577;-70
2023/03/28 00:41:21;;;;;;;1.53;1.53;;;1.10;99.90;;;;;;5035303;28;20770;-70
2023/03/28 00:43:50;;;;;;;2.33;2.23;;;1.20;99.90;;;;;;5038204;28;20261;-70
2023/03/28 00:46:19;;;;;;;1.97;1.87;;;1.20;99.90;;;;;;5038006;28;20172;-71
2023/03/28 00:48:55;;;;;;;3.20;2.90;;;1.20;99.90;;;;;;5043363;28;20540;-71
2023/03/28 00:51:26;;;;;;;1.60;1.60;;;1.10;99.90;;;;;;5046092;28;20290;-70
2023/03/28 00:53:56;;;;;;;2.60;2.40;;;1.10;99.90;;;;;;5044176;28;20192;-70
2023/03/28 00:56:24;;;;;;;2.23;2.10;;;1.10;99.90;;;;;;5044905;28;20216;-70
2023/03/28 00:58:50;;;;;;;2.30;2.10;;;1.10;99.90;;;;;;5035377;28;20192;-70
2023/03/28 01:01:18;;;;;;;2.03;1.93;;;1.20;99.90;;;;;;5048229;28;20190;-69
2023/03/28 01:03:51;;;;;;;2.73;2.13;;;1.20;99.90;;;;;;5040515;28;20680;-70
2023/03/28 01:06:20;;;;;;;3.23;2.07;;;1.20;99.90;;;;;;5041192;28;20643;-71
2023/03/28 01:08:47;;;;;;;3.77;1.93;;;1.20;99.90;;;;;;5043431;28;20176;-71
2023/03/28 01:11:14;;;;;;;2.20;2.03;;;1.30;99.90;;;;;;5035130;28;20259;-70
2023/03/28 01:13:51;;;;;;;2.37;2.17;;;1.20;99.90;;;;;;5043587;28;20195;-70
2023/03/28 01:16:19;;;;;;;2.43;2.27;;;1.10;99.90;;;;;;5049150;28;20175;-71
2023/03/28 01:18:50;;;;;;;1.83;1.73;;;1.00;99.90;;;;;;5039165;28;20553;-69
2023/03/28 01:21:32;;;;;;;2.30;1.90;;;1.00;99.90;;;;;;5033517;28;20196;-69
2023/03/28 01:24:16;;;;;;;1.87;1.80;;;1.00;99.90;;;;;;5040244;28;20253;-68
2023/03/28 01:27:00;;;;;;;2.23;2.13;;;1.10;99.90;;;;;;5031011;28;20200;-70
2023/03/28 01:30:00;;;;;;;1.40;1.30;;;1.10;99.90;;;;;;5043070;28;20267;-69
2023/03/28 01:33:10;;;;;;;1.90;1.80;;;1.10;99.90;;;;;;5049110;28;20207;-69
2023/03/28 01:35:59;;;;;;;2.00;1.83;;;1.10;99.90;;;;;;5040236;28;20213;-70
2023/03/28 01:38:43;;;;;;;2.17;2.07;;;1.00;99.90;;;;;;5041923;28;20258;-70
2023/03/28 01:41:32;;;;;;;2.13;1.93;;;0.90;99.90;;;;;;5039473;28;20246;-70
2023/03/28 01:44:11;;;;;;;2.53;1.60;;;0.90;99.90;;;;;;5035993;28;20201;-69
2023/03/28 01:46:43;;;;;;;3.00;2.00;;;0.90;99.90;;;;;;5034985;28;20203;-70
2023/03/28 01:49:10;;;;;;;1.97;1.60;;;0.90;99.90;;;;;;5033905;28;20709;-71
2023/03/28 01:51:39;;;;;;;2.47;1.93;;;1.00;99.90;;;;;;5042720;28;20659;-71
2023/03/28 01:54:43;;;;;;;2.50;2.27;;;1.00;99.90;;;;;;5035452;28;20671;-71
2023/03/28 01:57:17;;;;;;;1.53;1.53;;;1.00;99.90;;;;;;5040260;28;20201;-70
2023/03/28 02:00:11;;;;;;;1.67;1.67;;;1.10;99.90;;;;;;5042229;28;20176;-70
2023/03/28 02:03:13;;;;;;;2.63;2.40;;;1.00;99.90;;;;;;5028806;28;20317;-70
2023/03/28 02:05:41;;;;;;;2.73;1.90;;;1.00;99.90;;;;;;5034746;28;20720;-70
2023/03/28 02:08:09;;;;;;;2.70;2.50;;;1.00;99.90;;;;;;5036475;28;20582;-70
2023/03/28 02:10:40;;;;;;;2.77;2.53;;;1.00;99.90;;;;;;5040826;28;20172;-71
2023/03/28 02:13:19;;;;;;;2.53;2.33;;;1.00;99.90;;;;;;5035671;28;20204;-71
2023/03/28 02:15:51;;;;;;;3.53;3.20;;;0.80;99.90;;;;;;5043796;28;20186;-71
2023/03/28 02:18:23;;;;;;;2.93;2.80;;;0.80;99.90;;;;;;5032845;28;20208;-71
2023/03/28 02:20:55;;;;;;;3.37;3.17;;;0.70;99.90;;;;;;5042887;28;20192;-71
2023/03/28 02:23:25;;;;;;;2.87;2.70;;;0.70;99.90;;;;;;5036204;28;20277;-71
2023/03/28 02:25:51;;;;;;;3.40;2.80;;;0.80;99.90;;;;;;5041287;28;20204;-70
2023/03/28 02:28:18;;;;;;;2.53;2.33;;;0.70;99.90;;;;;;5037895;28;20691;-71
2023/03/28 02:30:44;;;;;;;3.07;2.87;;;0.80;99.90;;;;;;5037263;28;20176;-71
2023/03/28 02:33:33;;;;;;;2.40;2.23;;;0.80;99.90;;;;;;5039459;28;20275;-70
2023/03/28 02:36:19;;;;;;;2.77;2.43;;;0.80;99.90;;;;;;5039619;28;20198;-71
2023/03/28 02:39:00;;;;;;;1.97;1.87;;;0.90;99.90;;;;;;5038287;28;20201;-71
2023/03/28 02:42:07;;;;;;;2.77;2.13;;;0.90;99.90;;;;;;5041173;28;20677;-71
2023/03/28 02:44:45;;;;;;;2.50;2.40;;;0.90;99.90;;;;;;5035318;28;20725;-71
2023/03/28 02:47:39;;;;;;;4.23;2.93;;;0.90;99.90;;;;;;5026244;28;20189;-71
2023/03/28 02:50:05;;;;;;;2.00;1.90;;;0.90;99.90;;;;;;5028873;28;20188;-70
2023/03/28 02:52:50;;;;;;;3.43;2.90;;;0.80;99.90;;;;;;5039256;28;20556;-70
2023/03/28 02:55:38;;;;;;;2.93;2.63;;;0.80;99.90;;;;;;5040017;28;20678;-70
2023/03/28 02:58:09;;;;;;;2.40;2.20;;;0.90;99.90;;;;;;5035862;28;20188;-70
2023/03/28 03:00:36;;;;;;;3.53;3.27;;;0.80;99.90;;;;;;5034307;28;20183;-70
2023/03/28 03:03:02;;;;;;;3.20;2.90;;;0.90;99.90;;;;;;5035395;28;20413;-71
2023/03/28 03:05:29;;;;;;;3.10;2.90;;;0.80;99.90;;;;;;5041039;28;20212;-71
2023/03/28 03:07:55;;;;;;;2.90;2.70;;;0.80;99.90;;;;;;5033561;28;20268;-71
2023/03/28 03:10:21;;;;;;;2.80;2.50;;;0.70;99.90;;;;;;5024791;28;20187;-70
2023/03/28 03:12:47;;;;;;;2.43;2.23;;;0.70;99.90;;;;;;5036690;28;20231;-71
2023/03/28 03:15:15;;;;;;;3.30;3.10;;;0.70;99.90;;;;;;5038167;28;20215;-71
2023/03/28 03:17:42;;;;;;;3.33;2.20;;;0.70;99.90;;;;;;5032089;28;20271;-73
2023/03/28 03:20:09;;;;;;;3.27;2.90;;;0.60;99.90;;;;;;5021827;28;20233;-71
2023/03/28 03:22:35;;;;;;;5.13;3.43;;;0.60;99.90;;;;;;5039617;28;20683;-71
2023/03/28 03:25:06;;;;;;;3.50;2.67;;;0.60;99.90;;;;;;5042496;28;20196;-71
2023/03/28 03:27:35;;;;;;;5.83;3.10;;;0.50;99.90;;;;;;5024360;28;20741;-71
2023/03/28 03:30:02;;;;;;;3.03;2.70;;;0.60;99.90;;;;;;5023107;28;20185;-70
2023/03/28 03:32:27;;;;;;;3.20;2.90;;;0.50;99.90;;;;;;5038048;28;20251;-71
2023/03/28 03:34:53;;;;;;;3.70;3.30;;;0.60;99.90;;;;;;5034818;28;20180;-71
2023/03/28 03:37:19;;;;;;;3.73;3.43;;;0.50;99.90;;;;;;5022459;28;20278;-70
2023/03/28 03:39:45;;;;;;;4.20;3.80;;;0.40;99.90;;;;;;5040478;28;20238;-70
2023/03/28 03:42:12;;;;;;;3.87;3.20;;;0.40;99.90;;;;;;5030618;28;20219;-70
2023/03/28 03:44:37;;;;;;;5.00;3.53;;;0.40;99.90;;;;;;5028338;28;20216;-70
2023/03/28 03:47:03;;;;;;;4.00;3.60;;;0.50;99.90;;;;;;5035595;28;20183;-70
2023/03/28 03:49:29;;;;;;;2.87;2.37;;;0.50;99.90;;;;;;5018808;28;20409;-70
2023/03/28 03:51:54;;;;;;;6.43;3.97;;;0.50;99.90;;;;;;5037310;28;20756;-70
2023/03/28 03:54:20;;;;;;;3.50;3.07;;;0.60;99.90;;;;;;5033232;28;20200;-70
2023/03/28 03:56:47;;;;;;;3.67;2.73;;;0.60;99.90;;;;;;5036725;28;20222;-70
2023/03/28 03:59:13;;;;;;;4.20;3.77;;;0.60;99.90;;;;;;5037698;28;20181;-70
2023/03/28 04:01:40;;;;;;;3.13;2.87;;;0.60;99.90;;;;;;5033921;28;20212;-70
2023/03/28 04:04:08;;;;;;;4.33;3.03;;;0.50;99.90;;;;;;5036221;28;20200;-70
2023/03/28 04:06:34;;;;;;;3.70;3.40;;;0.50;99.90;;;;;;5033455;28;20208;-71
2023/03/28 04:09:00;;;;;;;5.43;4.23;;;0.50;99.90;;;;;;5031062;28;20665;-71
2023/03/28 04:11:26;;;;;;;5.37;4.07;;;0.50;99.90;;;;;;5033395;28;20188;-71
2023/03/28 04:13:51;;;;;;;6.33;4.83;;;0.40;99.90;;;;;;5035856;28;20188;-71
2023/03/28 04:16:19;;;;;;;4.20;3.80;;;0.40;99.90;;;;;;5036559;28;20253;-71
2023/03/28 04:18:49;;;;;;;4.47;3.90;;;0.40;99.90;;;;;;5039837;28;20311;-71
2023/03/28 04:21:16;;;;;;;5.13;4.40;;;0.50;99.90;;;;;;5043830;28;20195;-70
2023/03/28 04:23:42;;;;;;;5.07;4.57;;;0.30;99.90;;;;;;5037979;28;20208;-71
2023/03/28 04:26:08;;;;;;;6.27;4.53;;;0.30;99.90;;;;;;5033304;28;20203;-71
2023/03/28 04:28:35;;;;;;;5.53;5.00;;;0.20;99.90;;;;;;5032698;28;20658;-70
2023/03/28 04:31:01;;;;;;;5.97;3.90;;;0.20;99.90;;;;;;5031086;28;20172;-70
2023/03/28 04:33:29;;;;;;;5.30;4.80;;;0.10;99.90;;;;;;5028839;28;20591;-70
2023/03/28 04:35:58;;;;;;;7.30;5.73;;;0.10;99.90;;;;;;5035629;28;20180;-71
2023/03/28 04:38:27;;;;;;;7.47;5.90;;;0.10;99.90;;;;;;5035824;28;20260;-71
2023/03/28 04:40:56;;;;;;;6.07;5.40;;;0.20;99.90;;;;;;5025751;28;20170;-70
2023/03/28 04:43:23;;;;;;;4.70;4.30;;;0.30;99.90;;;;;;5028907;28;20263;-70
2023/03/28 04:45:49;;;;;;;5.93;4.23;;;0.20;99.90;;;;;;5041681;28;20257;-69
2023/03/28 04:48:15;;;;;;;4.37;3.73;;;0.20;99.90;;;;;;5034227;28;20274;-69
2023/03/28 04:50:40;;;;;;;4.60;3.90;;;0.40;99.90;;;;;;5028714;28;20212;-71
2023/03/28 04:53:06;;;;;;;4.93;4.43;;;0.40;99.90;;;;;;5022048;28;20212;-71
2023/03/28 04:55:31;;;;;;;7.03;5.20;;;0.30;99.90;;;;;;5037962;28;20331;-71
2023/03/28 04:57:57;;;;;;;10.07;5.70;;;0.30;99.90;;;;;;5032324;28;20268;-70
2023/03/28 05:00:24;;;;;;;9.37;5.67;;;0.30;99.90;;;;;;5031244;28;20608;-70
2023/03/28 05:02:53;;;;;;;7.83;5.10;;;0.20;99.90;;;;;;5043600;28;20214;-70
2023/03/28 05:05:19;;;;;;;6.93;5.53;;;0.30;99.90;;;;;;5033797;28;20292;-69
2023/03/28 05:07:45;;;;;;;10.60;6.20;;;0.30;99.90;;;;;;5041740;28;20180;-69
2023/03/28 05:10:10;;;;;;;10.73;6.20;;;0.40;99.90;;;;;;5040921;28;20184;-70
2023/03/28 05:12:36;;;;;;;8.93;6.00;;;0.50;99.90;;;;;;5034569;28;20204;-70
2023/03/28 05:15:03;;;;;;;6.40;5.33;;;0.60;99.90;;;;;;5038047;28;20180;-70
2023/03/28 05:17:28;;;;;;;7.60;6.20;;;0.60;99.90;;;;;;5025287;28;20534;-71
2023/03/28 05:19:54;;;;;;;7.67;5.80;;;0.70;99.90;;;;;;5035570;28;20195;-71
2023/03/28 05:22:19;;;;;;;7.60;5.67;;;0.80;99.90;;;;;;5043050;28;20675;-70
2023/03/28 05:24:45;;;;;;;7.50;4.93;;;0.90;99.90;;;;;;5042535;28;20264;-68
2023/03/28 05:27:10;;;;;;;7.90;5.43;;;1.00;99.90;;;;;;5039393;28;20177;-70
2023/03/28 05:29:36;;;;;;;6.93;5.37;;;1.00;99.90;;;;;;5039388;28;20187;-70
2023/03/28 05:32:02;;;;;;;6.07;5.13;;;1.00;99.90;;;;;;5044321;28;20253;-70
2023/03/28 05:34:28;;;;;;;6.83;4.60;;;1.00;99.90;;;;;;5044949;28;20275;-69
2023/03/28 05:36:55;;;;;;;4.40;4.07;;;1.00;99.90;;;;;;5044501;28;20183;-69
2023/03/28 05:39:22;;;;;;;4.67;4.27;;;1.10;99.90;;;;;;5037458;28;20242;-70
2023/03/28 05:41:48;;;;;;;6.30;5.10;;;1.20;99.90;;;;;;5046821;28;20238;-70
2023/03/28 05:44:14;;;;;;;8.57;5.47;;;1.20;99.90;;;;;;5042143;28;20568;-70
2023/03/28 05:46:39;;;;;;;6.77;5.83;;;1.10;99.90;;;;;;5036506;28;20183;-70
2023/03/28 05:49:05;;;;;;;7.60;6.00;;;1.00;99.90;;;;;;5033272;28;20172;-71
2023/03/28 05:51:31;;;;;;;5.30;4.63;;;1.00;99.90;;;;;;5034984;28;20197;-72
2023/03/28 05:53:56;;;;;;;5.90;4.30;;;1.10;99.90;;;;;;5039815;28;20184;-71
2023/03/28 05:56:22;;;;;;;4.17;3.87;;;1.10;99.90;;;;;;5029767;28;20261;-71
2023/03/28 05:58:48;;;;;;;5.53;5.07;;;1.20;99.90;;;;;;5031974;28;20181;-70
2023/03/28 06:01:16;;;;;;;5.50;4.77;;;1.20;99.90;;;;;;5031985;28;20219;-70
2023/03/28 06:03:44;;;;;;;6.53;5.10;;;1.30;99.90;;;;;;5032815;28;20204;-71
2023/03/28 06:06:10;;;;;;;5.40;4.87;;;1.30;99.90;;;;;;5031092;28;20204;-71
2023/03/28 06:08:36;;;;;;;5.73;4.67;;;1.40;99.90;;;;;;5031158;28;20180;-70
2023/03/28 06:11:02;;;;;;;5.63;4.97;;;1.30;99.90;;;;;;5032170;28;20199;-70
2023/03/28 06:13:28;;;;;;;7.57;4.50;;;1.40;99.90;;;;;;5032112;28;20208;-73
2023/03/28 06:15:53;;;;;;;7.00;4.73;;;1.70;99.90;;;;;;5024239;28;20589;-72
2023/03/28 06:18:19;;;;;;;6.37;5.20;;;1.80;99.90;;;;;;5027215;28;20557;-73
2023/03/28 06:20:45;;;;;;;6.73;4.37;;;1.90;99.90;;;;;;5031511;28;20267;-73
2023/03/28 06:23:10;;;;;;;3.63;3.27;;;2.20;99.90;;;;;;5033029;28;20270;-74
2023/03/28 06:25:36;;;;;;;5.67;5.10;;;2.40;99.90;;;;;;5030848;28;20222;-73
2023/03/28 06:28:02;;;;;;;6.23;4.80;;;2.50;99.90;;;;;;5033401;28;20201;-73
2023/03/28 06:30:27;;;;;;;8.13;4.73;;;2.50;99.90;;;;;;5032951;28;20185;-79
2023/03/28 06:32:53;;;;;;;4.60;4.17;;;2.60;99.90;;;;;;5023312;28;20207;-72
2023/03/28 06:35:20;;;;;;;4.90;3.60;;;2.70;99.90;;;;;;5028029;28;20223;-72
2023/03/28 06:37:45;;;;;;;6.30;4.00;;;2.90;99.90;;;;;;5029191;28;20731;-72
2023/03/28 06:40:11;;;;;;;6.60;4.13;;;2.90;99.90;;;;;;5022487;28;20186;-72
2023/03/28 06:42:36;;;;;;;5.63;3.80;;;2.90;99.90;;;;;;5030637;28;20197;-74
2023/03/28 06:45:02;;;;;;;3.67;3.37;;;3.00;99.90;;;;;;5029475;28;20707;-73
2023/03/28 06:47:29;;;;;;;6.50;4.33;;;3.10;99.90;;;;;;5030226;28;20175;-73
2023/03/28 06:49:54;;;;;;;4.53;3.15;;;3.30;99.90;;;;;;5037951;28;20181;-73
2023/03/28 06:52:22;;;;;;;3.50;3.20;;;3.40;99.90;;;;;;5023739;28;20220;-73
2023/03/28 06:54:47;;;;;;;4.57;4.07;;;3.60;99.90;;;;;;5025841;28;20555;-74
2023/03/28 06:57:13;;;;;;;5.30;4.37;;;3.70;99.90;;;;;;5034598;28;20192;-74
2023/03/28 06:59:39;;;;;;;4.10;3.70;;;3.80;99.90;;;;;;5038273;28;20194;-77
2023/03/28 07:02:04;;;;;;;6.05;3.72;;;4.00;99.90;;;;;;5032178;28;20216;-76
2023/03/28 07:04:31;;;;;;;6.65;3.97;;;4.10;99.90;;;;;;5032208;28;20249;-74
2023/03/28 07:06:57;;;;;;;3.80;2.72;;;4.40;99.90;;;;;;5024331;28;20317;-75
2023/03/28 07:09:22;;;;;;;5.65;3.47;;;4.50;99.90;;;;;;5039396;28;20214;-72
2023/03/28 07:11:48;;;;;;;5.78;3.03;;;4.60;99.90;;;;;;5035228;28;20208;-74
2023/03/28 07:14:13;;;;;;;3.17;2.83;;;4.60;99.90;;;;;;5027525;28;20525;-71
2023/03/28 07:16:39;;;;;;;4.90;3.33;;;4.60;99.90;;;;;;5029580;28;20184;-72
2023/03/28 07:19:05;;;;;;;3.67;3.47;;;4.40;99.90;;;;;;5025458;28;20272;-75
2023/03/28 07:21:30;;;;;;;5.82;3.53;;;4.30;99.90;;;;;;5036784;28;20215;-71
2023/03/28 07:23:56;;;;;;;7.22;3.90;;;4.30;99.90;;;;;;5034606;28;20204;-71
2023/03/28 07:26:21;;;;;;;4.40;3.35;;;4.20;99.90;;;;;;5030159;28;20187;-71
2023/03/28 07:28:48;;;;;;;4.07;2.60;;;4.30;99.90;;;;;;5042383;28;20233;-70
2023/03/28 07:31:14;;;;;;;3.38;2.78;;;4.30;99.90;;;;;;5024922;28;20915;-71
2023/03/28 07:33:40;;;;;;;6.60;3.72;;;4.30;99.90;;;;;;5024077;28;20207;-71
2023/03/28 07:36:12;;;;;;;3.10;2.70;;;4.40;99.90;;;;;;5029938;28;20219;-71
2023/03/28 07:38:37;;;;;;;3.45;2.70;;;4.40;99.90;;;;;;5032655;28;20198;-72
2023/03/28 07:41:03;;;;;;;4.70;2.50;;;4.60;99.90;;;;;;5020227;28;20194;-72
2023/03/28 07:43:28;;;;;;;3.35;2.78;;;4.80;99.90;;;;;;5029246;28;20299;-72
2023/03/28 07:46:02;;;;;;;2.60;2.22;;;4.90;99.90;;;;;;5039132;28;20181;-72
2023/03/28 07:48:28;;;;;;;7.10;2.78;;;5.20;99.90;;;;;;5036856;28;20238;-72
2023/03/28 07:50:54;;;;;;;2.50;1.88;;;5.20;99.90;;;;;;5023782;28;20177;-73
2023/03/28 07:53:20;;;;;;;3.45;2.60;;;5.30;99.90;;;;;;5029355;28;20208;-73
2023/03/28 07:55:47;;;;;;;4.72;2.75;;;5.50;99.90;;;;;;5040501;28;20172;-73
2023/03/28 07:58:13;;;;;;;4.75;3.05;;;5.60;99.90;;;;;;5042461;28;20180;-73
2023/03/28 08:00:39;;;;;;;4.28;2.65;;;5.50;99.90;;;;;;5032758;28;20634;-72
2023/03/28 08:03:05;;;;;;;3.10;2.50;;;5.50;99.90;;;;;;5039482;28;20246;-73
2023/03/28 08:05:33;;;;;;;1.92;1.73;;;5.70;99.90;;;;;;5035339;28;20702;-71
2023/03/28 08:07:58;;;;;;;4.68;2.58;;;5.80;99.90;;;;;;5030703;28;20185;-70
2023/03/28 08:10:24;;;;;;;4.95;2.13;;;5.70;99.90;;;;;;5035393;28;20176;-70
2023/03/28 08:12:50;;;;;;;4.70;2.35;;;5.70;99.90;;;;;;5026668;28;20200;-71
2023/03/28 08:15:16;;;;;;;1.92;1.73;;;5.70;99.90;;;;;;5028046;28;20192;-70
2023/03/28 08:17:41;;;;;;;3.95;2.03;;;5.60;99.90;;;;;;5030359;28;20181;-71
2023/03/28 08:20:09;;;;;;;2.35;1.92;;;5.80;99.90;;;;;;5043190;28;20546;-70
2023/03/28 08:22:35;;;;;;;3.47;1.90;;;5.90;99.60;;;;;;5028116;28;20228;-71
2023/03/28 08:25:00;;;;;;;2.47;1.80;;;6.20;99.40;;;;;;5031823;28;20212;-70
2023/03/28 08:27:26;;;;;;;5.80;2.08;;;6.10;99.50;;;;;;5039444;28;20168;-71
2023/03/28 08:29:52;;;;;;;1.67;1.48;;;6.20;98.40;;;;;;5041150;28;20180;-71
2023/03/28 08:32:17;;;;;;;5.10;2.08;;;6.30;98.00;;;;;;5044010;28;20231;-71
2023/03/28 08:34:43;;;;;;;4.15;2.13;;;6.20;98.50;;;;;;5035982;28;20177;-71
2023/03/28 08:37:09;;;;;;;3.70;2.30;;;6.20;97.20;;;;;;5032260;28;20263;-72
2023/03/28 08:39:36;;;;;;;3.60;2.42;;;6.10;97.10;;;;;;5043503;28;20184;-71
2023/03/28 08:42:05;;;;;;;5.30;2.53;;;6.10;96.70;;;;;;5041740;28;20208;-73
2023/03/28 08:44:50;;;;;;;2.13;1.83;;;6.00;96.90;;;;;;5036790;28;20247;-72
2023/03/28 08:47:59;;;;;;;3.92;1.80;;;6.20;96.40;;;;;;5032854;28;20204;-72
2023/03/28 08:50:32;;;;;;;3.17;2.28;;;6.00;96.60;;;;;;5033535;28;20192;-72
2023/03/28 08:52:58;;;;;;;3.65;2.10;;;6.10;96.50;;;;;;5046884;28;20200;-72
2023/03/28 08:55:36;;;;;;;4.35;2.55;;;6.20;96.20;;;;;;5033891;28;20598;-72
2023/03/28 08:58:02;;;;;;;2.17;1.98;;;6.30;96.60;;;;;;5043139;28;20271;-72
2023/03/28 09:00:31;;;;;;;3.72;2.30;;;6.50;97.10;;;;;;5035470;28;20246;-75
2023/03/28 09:02:58;;;;;;;4.97;1.83;;;7.10;95.50;;;;;;5043940;28;20201;-74
2023/03/28 09:05:42;;;;;;;2.13;1.50;;;7.20;94.70;;;;;;5035098;28;20208;-74
2023/03/28 09:08:17;;;;;;;3.85;1.90;;;7.40;93.80;;;;;;5035495;28;20207;-74
2023/03/28 09:10:46;;;;;;;2.42;1.63;;;7.30;93.30;;;;;;5040987;28;20196;-74
2023/03/28 09:13:15;;;;;;;2.47;1.52;;;7.10;94.00;;;;;;5043510;28;20238;-74
2023/03/28 09:15:47;;;;;;;2.92;1.77;;;7.00;93.90;;;;;;5034966;28;20185;-73
2023/03/28 09:18:31;;;;;;;4.97;2.03;;;7.00;92.60;;;;;;5049700;28;20464;-74
2023/03/28 09:21:17;;;;;;;2.90;2.03;;;7.10;92.90;;;;;;5036304;28;20252;-74
2023/03/28 09:23:43;;;;;;;4.30;1.70;;;7.00;93.30;;;;;;5037000;28;20181;-74
2023/03/28 09:26:16;;;;;;;5.70;1.58;;;7.10;92.60;;;;;;5035526;28;20329;-74
2023/03/28 09:28:45;;;;;;;8.02;2.50;;;7.10;92.10;;;;;;5037853;28;20183;-74
2023/03/28 09:31:13;;;;;;;3.60;2.25;;;7.30;91.40;;;;;;5029957;28;20601;-74
2023/03/28 09:33:42;;;;;;;3.33;1.90;;;7.30;91.70;;;;;;5026357;28;20164;-74
2023/03/28 09:36:13;;;;;;;3.13;1.65;;;7.10;92.00;;;;;;5031739;28;20191;-74
2023/03/28 09:38:46;;;;;;;4.18;1.88;;;7.00;91.80;;;;;;5035654;28;20191;-74
2023/03/28 09:41:39;;;;;;;4.10;2.05;;;7.00;92.00;;;;;;5043970;28;20259;-74
2023/03/28 09:44:10;;;;;;;5.47;1.67;;;7.10;91.70;;;;;;5024564;28;20707;-75
2023/03/28 09:46:42;;;;;;;1.52;1.42;;;6.80;91.50;;;;;;5027154;28;20251;-75
2023/03/28 09:49:22;;;;;;;6.43;1.88;;;6.90;90.80;;;;;;5035152;28;20534;-75
2023/03/28 09:51:51;;;;;;;5.85;1.88;;;6.70;90.90;;;;;;5033184;28;20207;-77
2023/03/28 09:54:29;;;;;;;5.80;1.58;;;6.60;90.90;;;;;;5027254;28;20193;-76
2023/03/28 09:57:00;;;;;;;1.85;1.20;;;6.30;91.60;;;;;;5029412;28;20184;-75
2023/03/28 09:59:28;;;;;;;1.65;1.55;;;6.50;90.90;;;;;;5037028;28;20184;-75
2023/03/28 10:01:55;;;;;;;3.70;1.65;;;6.50;90.10;;;;;;5029224;28;20456;-75
2023/03/28 10:04:26;;;;;;;4.50;1.80;;;6.50;90.20;;;;;;5033550;28;20216;-75
2023/03/28 10:06:54;;;;;;;4.25;1.98;;;6.50;90.50;;;;;;5029352;28;20181;-75
2023/03/28 10:09:25;;;;;;;3.22;1.52;;;6.60;91.40;;;;;;5032116;28;20183;-76
2023/03/28 10:11:56;;;;;;;2.50;1.25;;;6.70;90.60;;;;;;5039616;28;20196;-75
2023/03/28 10:14:29;;;;;;;5.50;1.45;;;6.70;88.30;;;;;;5031538;28;20192;-75
2023/03/28 10:16:55;;;;;;;1.52;1.20;;;6.80;90.20;;;;;;5028759;28;20264;-75
2023/03/28 10:19:25;;;;;;;2.60;1.88;;;7.30;90.60;;;;;;5033617;28;20223;-76
2023/03/28 10:21:50;;;;;;;4.75;1.67;;;8.10;87.90;;;;;;5033976;28;20207;-76
2023/03/28 10:24:20;;;;;;;3.10;1.30;;;9.60;84.30;;;;;;5037121;28;20208;-77
2023/03/28 10:26:46;;;;;;;1.30;1.20;;;9.80;79.80;;;;;;5022420;28;20267;-77
2023/03/28 10:29:14;;;;;;;2.67;2.10;;;9.30;78.70;;;;;;5023911;28;20224;-76
2023/03/28 10:31:48;;;;;;;1.58;1.27;;;8.60;79.70;;;;;;5036979;28;20678;-76
2023/03/28 10:34:29;;;;;;;3.72;1.77;;;8.00;81.60;;;;;;5034381;28;20195;-75
2023/03/28 10:36:54;;;;;;;3.75;1.80;;;7.60;84.30;;;;;;5019500;28;20246;-76
2023/03/28 10:39:23;;;;;;;3.50;1.58;;;7.40;85.30;;;;;;5033848;28;20181;-75
2023/03/28 10:41:54;;;;;;;4.43;1.80;;;7.20;85.90;;;;;;5027946;28;20216;-76
2023/03/28 10:44:31;;;;;;;3.95;1.58;;;7.20;85.90;;;;;;5038296;28;20200;-76
2023/03/28 10:47:02;;;;;;;1.58;1.40;;;7.70;85.00;;;;;;5029002;28;20561;-76
2023/03/28 10:49:36;;;;;;;1.95;1.33;;;8.50;82.60;;;;;;5030539;28;20306;-76
2023/03/28 10:52:12;;;;;;;1.73;0.88;;;9.30;79.20;;;;;;5028113;28;20560;-75
2023/03/28 10:54:46;;;;;;;3.15;1.88;;;9.70;76.90;;;;;;5034105;28;20266;-75
2023/03/28 10:57:20;;;;;;;3.08;1.40;;;9.50;75.30;;;;;;5027778;28;20184;-75
2023/03/28 11:00:12;;;;;;;5.15;1.48;;;9.30;74.90;;;;;;5025582;28;20663;-77
2023/03/28 11:02:46;;;;;;;2.22;1.35;;;9.00;76.10;;;;;;5029642;28;20200;-75
2023/03/28 11:05:17;;;;;;;1.48;1.17;;;8.90;76.20;;;;;;5028716;28;20216;-77
2023/03/28 11:08:01;;;;;;;0.90;0.90;;;8.80;76.50;;;;;;5030496;28;20255;-78
2023/03/28 11:11:14;;;;;;;5.32;1.65;;;8.90;77.20;;;;;;5029104;28;20196;-78
2023/03/28 11:14:11;;;;;;;1.33;1.20;;;9.00;77.30;;;;;;5012125;28;20204;-77
2023/03/28 11:16:58;;;;;;;1.42;1.25;;;9.90;75.50;;;;;;5042146;28;20180;-78
2023/03/28 11:19:32;;;;;;;2.88;1.38;;;12.90;70.80;;;;;;5031088;28;20216;-76
2023/03/28 11:22:23;;;;;;;2.33;1.17;;;15.30;60.00;;;;;;5025439;28;20212;-75
2023/03/28 11:24:55;;;;;;;3.17;1.23;;;14.70;57.40;;;;;;5034503;28;20235;-76
2023/03/28 11:27:37;;;;;;;0.80;0.80;;;14.70;57.10;;;;;;5034744;28;20187;-77
2023/03/28 11:30:17;;;;;;;2.83;1.60;;;14.40;56.00;;;;;;5042280;28;20196;-75
2023/03/28 11:33:12;;;;;;;3.88;1.83;;;15.40;55.70;;;;;;5037943;28;20284;-77
2023/03/28 11:35:42;;;;;;;2.90;1.25;;;15.90;53.70;;;;;;5028938;28;20577;-77
2023/03/28 11:38:21;;;;;;;3.65;1.23;;;15.40;53.20;;;;;;5035963;28;20632;-76
2023/03/28 11:40:53;;;;;;;1.75;1.42;;;14.40;53.00;;;;;;5036428;28;20191;-77
2023/03/28 11:44:04;;;;;;;1.42;1.20;;;13.00;55.40;;;;;;5041762;28;20847;-77
2023/03/28 11:46:36;;;;;;;3.17;1.42;;;11.70;57.30;;;;;;5033280;28;20192;-78
2023/03/28 11:49:35;;;;;;;3.47;1.50;;;11.20;57.80;;;;;;5029730;28;20655;-77
2023/03/28 11:52:07;;;;;;;3.13;1.35;;;11.60;58.50;;;;;;5033776;28;20220;-77
2023/03/28 11:54:41;;;;;;;3.20;1.85;;;12.20;57.00;;;;;;5036847;28;20191;-78
2023/03/28 11:57:15;;;;;;;1.90;1.00;;;12.80;56.20;;;;;;5025233;28;20182;-78
2023/03/28 12:00:11;;;;;;;3.25;1.45;;;13.70;52.60;;;;;;5035643;28;20225;-78
2023/03/28 12:03:03;;;;;;;3.28;1.20;;;13.80;52.50;;;;;;5028289;28;20197;-77
2023/03/28 12:05:39;;;;;;;2.33;1.02;;;15.10;51.30;;;;;;5036884;28;20717;-77
2023/03/28 12:08:30;;;;;;;2.58;1.20;;;15.10;51.30;;;;;;5033152;28;22817;-75
2023/03/28 12:11:02;;;;;;;3.90;1.60;;;14.00;50.10;;;;;;5023091;28;20664;-78
2023/03/28 12:14:00;;;;;;;1.58;1.33;;;13.00;51.90;;;;;;5032439;28;20214;-77
2023/03/28 12:16:33;;;;;;;1.05;0.98;;;12.80;54.30;;;;;;5028740;28;20596;-77
2023/03/28 12:19:02;;;;;;;3.72;1.38;;;15.00;52.30;;;;;;5033909;28;20715;-77
2023/03/28 12:21:40;;;;;;;0.63;0.63;;;17.50;48.20;;;;;;5043604;28;20199;-75
2023/03/28 12:24:36;;;;;;;3.47;1.05;;;18.80;45.80;;;;;;5046537;28;20200;-77
2023/03/28 12:27:30;;;;;;;3.45;1.58;;;18.40;44.70;;;;;;5044375;28;20180;-78
2023/03/28 12:30:21;;;;;;;2.42;1.30;;;16.90;46.00;;;;;;5047383;28;20177;-78
2023/03/28 12:33:10;;;;;;;4.78;1.20;;;16.40;47.80;;;;;;5038278;28;20218;-77
2023/03/28 12:35:56;;;;;;;1.55;0.93;;;16.90;45.60;;;;;;5029748;28;20275;-77
2023/03/28 12:38:38;;;;;;;4.63;1.73;;;16.80;46.20;;;;;;5045459;28;20177;-76
2023/03/28 12:41:17;;;;;;;1.52;1.20;;;16.60;46.10;;;;;;5050560;28;20232;-78
2023/03/28 12:44:00;;;;;;;2.45;1.30;;;16.40;45.90;;;;;;5034599;28;20172;-76
2023/03/28 12:46:33;;;;;;;1.58;1.02;;;17.00;45.50;;;;;;5040101;28;20210;-75
2023/03/28 12:49:13;;;;;;;2.13;1.67;;;18.50;45.40;;;;;;5035514;28;20180;-78
2023/03/28 12:51:45;;;;;;;2.13;1.23;;;19.10;43.70;;;;;;5038744;28;20222;-78
2023/03/28 12:54:14;;;;;;;3.25;1.33;;;17.90;43.80;;;;;;5042508;28;20188;-77
2023/03/28 12:56:40;;;;;;;3.08;1.83;;;17.60;43.90;;;;;;5044972;28;20199;-80
2023/03/28 12:59:34;;;;;;;2.63;1.42;;;17.10;43.70;;;;;;5038379;28;20188;-77
2023/03/28 13:02:15;;;;;;;3.03;1.50;;;16.60;45.40;;;;;;5031441;28;20203;-77
2023/03/28 13:04:58;;;;;;;1.02;1.00;;;18.30;44.00;;;;;;5030380;28;20268;-77
2023/03/28 13:08:05;;;;;;;2.25;1.77;;;19.60;41.50;;;;;;5041102;28;20232;-76
2023/03/28 13:11:06;;;;;;;0.98;0.98;;;19.90;40.50;;;;;;5029745;28;20258;-77
2023/03/28 13:13:57;;;;;;;2.35;1.75;;;19.60;40.30;;;;;;5022966;28;20176;-77
2023/03/28 13:16:41;;;;;;;3.00;1.27;;;19.50;42.30;;;;;;5046996;28;20553;-77
2023/03/28 13:19:13;;;;;;;1.48;1.23;;;20.40;40.40;;;;;;5026726;28;20188;-77
2023/03/28 13:21:45;;;;;;;1.90;1.40;;;20.80;38.60;;;;;;5030866;28;20203;-78